Time;durP1;ratioP1;P1;durP2;ratioP2;P2;SDS_P1;SDS_P2;PMS_P1;PMS_P2;Temp;Humidity;BMP_temperature;BMP_pressure;BME280_temperature;BME280_humidity;BME280_pressure;Samples;Min_cycle;Max_cycle;Signal;HPM_P1;HPM_P2
2023/06/29 00:01:42;;;;;;;;;;;;;;;;;;5056290;28;20040;-79
2023/06/29 00:04:09;;;;;;;32.70;18.95;;;;;;;;;;5071143;28;19927;-80
2023/06/29 00:06:38;;;;;;;24.77;13.80;;;;;;;;;;5039149;28;20135;-79
2023/06/29 00:09:07;;;;;;;21.27;12.68;;;;;;;;;;5071283;28;20500;-79
2023/06/29 00:11:33;;;;;;;34.53;19.58;;;;;;;;;;5038541;28;20099;-79
2023/06/29 00:13:59;;;;;;;37.30;19.77;;;;;;;;;;5051769;28;20049;-79
2023/06/29 00:16:25;;;;;;;;;;;;;;;;;;5052054;28;20055;-79
2023/06/29 00:18:54;;;;;;;33.95;18.70;;;;;;;;;;5054784;28;19920;-79
2023/06/29 00:21:20;;;;;;;30.73;18.90;;;;;;;;;;5034132;28;20045;-79
2023/06/29 00:23:46;;;;;;;36.50;19.38;;;;;;;;;;5035147;28;20048;-79
2023/06/29 00:26:13;;;;;;;;;;;;;;;;;;5046008;28;20465;-80
2023/06/29 00:28:39;;;;;;;35.55;18.77;;;;;;;;;;5051806;28;19925;-80
2023/06/29 00:31:05;;;;;;;32.42;18.60;;;;;;;;;;5035601;28;20049;-79
2023/06/29 00:33:31;;;;;;;33.35;19.63;;;;;;;;;;5043230;28;20064;-79
2023/06/29 00:35:58;;;;;;;34.63;20.35;;;;;;;;;;5035274;28;20477;-79
2023/06/29 00:38:24;;;;;;;;;;;;;;;;;;5051810;28;20408;-81
2023/06/29 00:40:50;;;;;;;35.88;19.45;;;;;;;;;;5062546;28;19924;-79
2023/06/29 00:43:17;;;;;;;;;;;;;;;;;;5047626;28;20056;-79
2023/06/29 00:45:43;;;;;;;24.85;14.38;;;;;;;;;;5067551;28;19920;-80
2023/06/29 00:48:10;;;;;;;33.42;18.75;;;;;;;;;;5070151;28;20048;-79
2023/06/29 00:50:36;;;;;;;34.90;19.15;;;;;;;;;;5054463;28;20128;-79
2023/06/29 00:53:02;;;;;;;35.45;18.48;;;;;;;;;;5054060;28;20052;-80
2023/06/29 00:55:29;;;;;;;31.17;19.08;;;;;;;;;;5070679;28;20173;-79
2023/06/29 00:57:54;;;;;;;;;;;;;;;;;;5054820;28;20109;-80
2023/06/29 01:00:20;;;;;;;36.42;19.20;;;;;;;;;;5070353;28;19924;-79
2023/06/29 01:02:48;;;;;;;;;;;;;;;;;;5052374;28;20048;-79
2023/06/29 01:05:15;;;;;;;29.55;16.75;;;;;;;;;;5059348;28;19925;-80
2023/06/29 01:07:44;;;;;;;34.58;18.38;;;;;;;;;;5033608;28;20052;-79
2023/06/29 01:10:11;;;;;;;25.73;15.57;;;;;;;;;;5034032;28;20060;-79
2023/06/29 01:12:38;;;;;;;33.40;17.67;;;;;;;;;;5051902;28;20053;-80
2023/06/29 01:15:05;;;;;;;39.63;17.90;;;;;;;;;;5054170;28;20136;-79
2023/06/29 01:17:32;;;;;;;32.53;17.90;;;;;;;;;;5053331;28;20125;-80
2023/06/29 01:19:58;;;;;;;29.27;17.08;;;;;;;;;;5070129;28;20607;-79
2023/06/29 01:22:31;;;;;;;25.80;17.13;;;;;;;;;;5053705;28;20048;-80
2023/06/29 01:24:57;;;;;;;32.67;17.42;;;;;;;;;;5070584;28;20040;-79
2023/06/29 01:27:23;;;;;;;31.00;17.92;;;;;;;;;;5053731;28;20048;-79
2023/06/29 01:29:53;;;;;;;;;;;;;;;;;;5051178;28;20088;-79
2023/06/29 01:32:19;;;;;;;29.95;15.45;;;;;;;;;;5049910;28;19954;-79
2023/06/29 01:34:45;;;;;;;18.52;11.10;;;;;;;;;;5034806;28;20099;-79
2023/06/29 01:37:24;;;;;;;30.83;17.38;;;;;;;;;;5054134;28;20053;-79
2023/06/29 01:40:00;;;;;;;26.92;16.40;;;;;;;;;;5070082;28;20071;-79
2023/06/29 01:42:26;;;;;;;26.67;14.93;;;;;;;;;;5070092;28;20478;-80
2023/06/29 01:44:56;;;;;;;28.70;16.75;;;;;;;;;;5070443;28;20397;-79
2023/06/29 01:47:22;;;;;;;25.73;16.40;;;;;;;;;;5069843;28;20806;-80
2023/06/29 01:49:49;;;;;;;30.83;16.77;;;;;;;;;;5067396;28;20049;-79
2023/06/29 01:52:15;;;;;;;35.35;17.15;;;;;;;;;;5062474;28;20044;-80
2023/06/29 01:54:41;;;;;;;33.10;16.63;;;;;;;;;;5069214;28;20044;-80
2023/06/29 01:57:07;;;;;;;29.33;17.08;;;;;;;;;;5069764;28;20032;-80
2023/06/29 01:59:34;;;;;;;29.40;17.25;;;;;;;;;;5068477;28;20036;-79
2023/06/29 02:02:00;;;;;;;33.17;16.77;;;;;;;;;;5053603;28;20558;-80
2023/06/29 02:04:26;;;;;;;34.55;16.65;;;;;;;;;;5052086;28;20044;-80
2023/06/29 02:06:52;;;;;;;;;;;;;;;;;;5037030;28;20485;-79
2023/06/29 02:09:18;;;;;;;26.38;15.80;;;;;;;;;;5047656;28;20011;-80
2023/06/29 02:11:44;;;;;;;;;;;;;;;;;;5033754;28;20052;-80
2023/06/29 02:14:10;;;;;;;28.35;16.63;;;;;;;;;;5049354;28;20262;-80
2023/06/29 02:16:36;;;;;;;27.35;15.98;;;;;;;;;;5049639;28;20048;-80
2023/06/29 02:19:02;;;;;;;;;;;;;;;;;;5049211;28;20114;-79
2023/06/29 02:21:28;;;;;;;28.58;16.58;;;;;;;;;;5059888;28;20350;-80
2023/06/29 02:23:54;;;;;;;28.40;16.13;;;;;;;;;;5049363;28;20458;-79
2023/06/29 02:26:20;;;;;;;32.17;16.30;;;;;;;;;;5033421;28;20045;-79
2023/06/29 02:28:47;;;;;;;;;;;;;;;;;;5049521;28;20155;-79
2023/06/29 02:31:14;;;;;;;32.13;16.73;;;;;;;;;;5050007;28;19920;-79
2023/06/29 02:33:39;;;;;;;;;;;;;;;;;;5041588;28;20044;-79
2023/06/29 02:36:06;;;;;;;29.38;15.93;;;;;;;;;;5065878;28;19943;-79
2023/06/29 02:38:32;;;;;;;27.45;14.55;;;;;;;;;;5048639;28;20049;-79
2023/06/29 02:40:58;;;;;;;;;;;;;;;;;;5050263;28;20148;-79
2023/06/29 02:43:24;;;;;;;27.88;16.35;;;;;;;;;;5049361;28;20019;-79
2023/06/29 02:45:50;;;;;;;;;;;;;;;;;;5056855;28;20050;-80
2023/06/29 02:48:16;;;;;;;26.95;16.27;;;;;;;;;;5068648;28;20423;-79
2023/06/29 02:50:42;;;;;;;;;;;;;;;;;;5053057;28;20058;-79
2023/06/29 02:53:11;;;;;;;32.17;16.23;;;;;;;;;;5052399;28;19920;-79
2023/06/29 02:55:37;;;;;;;30.63;17.20;;;;;;;;;;5053021;28;20044;-79
2023/06/29 02:58:03;;;;;;;;;;;;;;;;;;5053198;28;20080;-80
2023/06/29 03:00:29;;;;;;;28.42;16.23;;;;;;;;;;5051792;28;19963;-79
2023/06/29 03:02:55;;;;;;;;;;;;;;;;;;5041902;28;20065;-79
2023/06/29 03:05:21;;;;;;;30.77;18.38;;;;;;;;;;5052936;28;19963;-79
2023/06/29 03:07:47;;;;;;;;;;;;;;;;;;5034772;28;20045;-79
2023/06/29 03:10:13;;;;;;;33.85;18.58;;;;;;;;;;5049167;28;19971;-79
2023/06/29 03:12:39;;;;;;;32.67;18.67;;;;;;;;;;5049678;28;20160;-79
2023/06/29 03:15:05;;;;;;;;;;;;;;;;;;5053240;28;20123;-79
2023/06/29 03:17:31;;;;;;;38.10;18.60;;;;;;;;;;5068793;28;19924;-80
2023/06/29 03:19:57;;;;;;;32.03;19.48;;;;;;;;;;5058230;28;20037;-79
2023/06/29 03:22:25;;;;;;;;;;;;;;;;;;5051522;28;20059;-79
2023/06/29 03:24:51;;;;;;;40.15;21.33;;;;;;;;;;5067984;28;19928;-79
2023/06/29 03:27:17;;;;;;;33.50;19.38;;;;;;;;;;5069246;28;20041;-79
2023/06/29 03:29:43;;;;;;;;;;;;;;;;;;5069031;28;20056;-79
2023/06/29 03:32:09;;;;;;;42.50;19.83;;;;;;;;;;5049802;28;19927;-79
2023/06/29 03:34:35;;;;;;;;;;;;;;;;;;5051560;28;20049;-79
2023/06/29 03:37:01;;;;;;;37.95;19.40;;;;;;;;;;5052676;28;20069;-81
2023/06/29 03:39:27;;;;;;;;;;;;;;;;;;5068856;28;20041;-79
2023/06/29 03:41:53;;;;;;;36.13;19.95;;;;;;;;;;5068853;28;19927;-79
2023/06/29 03:44:19;;;;;;;;;;;;;;;;;;5052754;28;20094;-79
2023/06/29 03:46:45;;;;;;;32.05;18.23;;;;;;;;;;5068627;28;19924;-79
2023/06/29 03:49:11;;;;;;;;;;;;;;;;;;5050434;28;20460;-80
2023/06/29 03:51:37;;;;;;;34.10;19.40;;;;;;;;;;5048741;28;19970;-80
2023/06/29 03:54:03;;;;;;;;;;;;;;;;;;5052280;28;20409;-79
2023/06/29 03:56:31;;;;;;;34.25;19.35;;;;;;;;;;5070088;28;19920;-79
2023/06/29 03:58:57;;;;;;;35.42;18.80;;;;;;;;;;5038782;28;20043;-80
2023/06/29 04:01:23;;;;;;;;;;;;;;;;;;5073158;28;20571;-79
2023/06/29 04:03:49;;;;;;;35.40;19.77;;;;;;;;;;5070941;28;19930;-79
2023/06/29 04:06:15;;;;;;;38.72;19.95;;;;;;;;;;5053656;28;20057;-79
2023/06/29 04:08:41;;;;;;;;;;;;;;;;;;5051332;28;20061;-79
2023/06/29 04:11:08;;;;;;;35.67;19.63;;;;;;;;;;5055132;28;19931;-79
2023/06/29 04:13:34;;;;;;;39.50;20.98;;;;;;;;;;5041873;28;20044;-80
2023/06/29 04:16:00;;;;;;;34.17;20.25;;;;;;;;;;5052369;28;20126;-79
2023/06/29 04:18:26;;;;;;;;;;;;;;;;;;5051703;28;20049;-79
2023/06/29 04:20:53;;;;;;;41.78;21.35;;;;;;;;;;5051942;28;19921;-80
2023/06/29 04:23:19;;;;;;;35.53;20.90;;;;;;;;;;5069970;28;20436;-79
2023/06/29 04:25:45;;;;;;;34.83;20.50;;;;;;;;;;5049784;28;20041;-79
2023/06/29 04:28:12;;;;;;;;;;;;;;;;;;5052232;28;20049;-79
2023/06/29 04:30:42;;;;;;;36.42;20.55;;;;;;;;;;5051547;28;19925;-80
2023/06/29 04:33:11;;;;;;;36.85;20.80;;;;;;;;;;5056868;28;20055;-79
2023/06/29 04:35:45;;;;;;;39.90;20.90;;;;;;;;;;5051440;28;20434;-80
2023/06/29 04:38:11;;;;;;;39.25;21.63;;;;;;;;;;5054613;28;20052;-79
2023/06/29 04:40:38;;;;;;;36.08;19.98;;;;;;;;;;5054853;28;20052;-80
2023/06/29 04:43:06;;;;;;;32.40;18.13;;;;;;;;;;5054950;28;20048;-80
2023/06/29 04:45:32;;;;;;;33.33;18.95;;;;;;;;;;5069205;28;20690;-80
2023/06/29 04:47:59;;;;;;;31.02;17.48;;;;;;;;;;5033781;28;20540;-79
2023/06/29 04:50:26;;;;;;;36.92;18.70;;;;;;;;;;5051340;28;20059;-79
2023/06/29 04:52:55;;;;;;;32.78;18.48;;;;;;;;;;5052613;28;20055;-79
2023/06/29 04:55:22;;;;;;;24.10;14.82;;;;;;;;;;5054349;28;20056;-79
2023/06/29 04:57:48;;;;;;;34.55;18.73;;;;;;;;;;5069896;28;20052;-79
2023/06/29 05:00:14;;;;;;;29.60;17.17;;;;;;;;;;5051984;28;20455;-79
2023/06/29 05:02:41;;;;;;;25.10;13.90;;;;;;;;;;5069970;28;20098;-79
2023/06/29 05:05:08;;;;;;;34.85;19.80;;;;;;;;;;5053511;28;20481;-79
2023/06/29 05:07:35;;;;;;;36.17;19.70;;;;;;;;;;5053498;28;20141;-79
2023/06/29 05:10:01;;;;;;;34.17;19.90;;;;;;;;;;5046501;28;20064;-80
2023/06/29 05:12:27;;;;;;;26.38;14.20;;;;;;;;;;5051231;28;20236;-79
2023/06/29 05:14:53;;;;;;;;;;;;;;;;;;5050878;28;20444;-79
2023/06/29 05:17:19;;;;;;;41.72;23.00;;;;;;;;;;5052966;28;19931;-80
2023/06/29 05:19:45;;;;;;;43.95;23.30;;;;;;;;;;5052321;28;20528;-79
2023/06/29 05:22:11;;;;;;;37.83;23.88;;;;;;;;;;5034560;28;20072;-80
2023/06/29 05:24:37;;;;;;;42.70;23.95;;;;;;;;;;5050542;28;20041;-79
2023/06/29 05:27:04;;;;;;;44.17;24.25;;;;;;;;;;5050528;28;20059;-79
2023/06/29 05:29:30;;;;;;;43.05;23.27;;;;;;;;;;5034091;28;20132;-79
2023/06/29 05:31:56;;;;;;;;;;;;;;;;;;5034346;28;20053;-79
2023/06/29 05:34:22;;;;;;;35.13;22.75;;;;;;;;;;5046870;28;19921;-79
2023/06/29 05:36:48;;;;;;;;;;;;;;;;;;5038408;28;20048;-80
2023/06/29 05:39:14;;;;;;;38.22;22.13;;;;;;;;;;5070105;28;19934;-79
2023/06/29 05:41:40;;;;;;;;;;;;;;;;;;5051175;28;20076;-80
2023/06/29 05:44:06;;;;;;;41.15;23.67;;;;;;;;;;5033388;28;19924;-80
2023/06/29 05:46:33;;;;;;;;;;;;;;;;;;5063729;28;20048;-80
2023/06/29 05:49:00;;;;;;;39.60;23.23;;;;;;;;;;5068870;28;19994;-80
2023/06/29 05:51:26;;;;;;;42.08;23.90;;;;;;;;;;5036979;28;20170;-79
2023/06/29 05:53:52;;;;;;;41.70;25.00;;;;;;;;;;5049531;28;20146;-79
2023/06/29 05:56:18;;;;;;;;;;;;;;;;;;5037281;28;20036;-80
2023/06/29 05:58:44;;;;;;;36.40;23.73;;;;;;;;;;5052131;28;19927;-80
2023/06/29 06:01:10;;;;;;;44.80;25.75;;;;;;;;;;5070052;28;20106;-80
2023/06/29 06:03:36;;;;;;;42.33;24.38;;;;;;;;;;5052309;28;20079;-79
2023/06/29 06:06:03;;;;;;;44.75;25.05;;;;;;;;;;5064050;28;20048;-79
2023/06/29 06:08:29;;;;;;;42.42;24.48;;;;;;;;;;5049304;28;20135;-79
2023/06/29 06:10:55;;;;;;;39.63;23.05;;;;;;;;;;5049516;28;20052;-79
2023/06/29 06:13:21;;;;;;;;;;;;;;;;;;5017325;28;20191;-80
2023/06/29 06:15:47;;;;;;;40.55;23.90;;;;;;;;;;5032981;28;20335;-80
2023/06/29 06:18:13;;;;;;;40.75;24.48;;;;;;;;;;5032064;28;20509;-80
2023/06/29 06:20:39;;;;;;;42.17;24.27;;;;;;;;;;5036363;28;20119;-80
2023/06/29 06:23:05;;;;;;;;;;;;;;;;;;5051882;28;20045;-80
2023/06/29 06:25:31;;;;;;;44.65;25.48;;;;;;;;;;5050050;28;19925;-79
2023/06/29 06:27:57;;;;;;;;;;;;;;;;;;5052746;28;20478;-80
2023/06/29 06:30:23;;;;;;;42.78;24.98;;;;;;;;;;5053412;28;19920;-80
2023/06/29 06:32:50;;;;;;;40.97;24.42;;;;;;;;;;5051322;28;20044;-80
2023/06/29 06:35:16;;;;;;;44.65;24.48;;;;;;;;;;5053175;28;20127;-80
2023/06/29 06:37:42;;;;;;;44.35;24.15;;;;;;;;;;5069081;28;20047;-80
2023/06/29 06:40:08;;;;;;;44.65;25.33;;;;;;;;;;5068980;28;20083;-80
2023/06/29 06:42:38;;;;;;;43.95;23.52;;;;;;;;;;5050439;28;20094;-71
2023/06/29 06:45:05;;;;;;;44.88;24.10;;;;;;;;;;5050394;28;20452;-70
2023/06/29 06:47:32;;;;;;;45.88;23.80;;;;;;;;;;5050325;28;20045;-74
2023/06/29 06:49:58;;;;;;;40.45;24.02;;;;;;;;;;5061995;28;20529;-75
2023/06/29 06:52:24;;;;;;;38.30;22.85;;;;;;;;;;5070700;28;20044;-71
2023/06/29 06:54:53;;;;;;;38.65;23.27;;;;;;;;;;5068627;28;20048;-73
2023/06/29 06:57:19;;;;;;;43.65;22.88;;;;;;;;;;5053377;28;20150;-73
2023/06/29 06:59:45;;;;;;;36.60;23.30;;;;;;;;;;5069214;28;20052;-70
2023/06/29 07:02:12;;;;;;;40.00;23.27;;;;;;;;;;5070192;28;20088;-75
2023/06/29 07:04:38;;;;;;;38.05;22.92;;;;;;;;;;5065144;28;20139;-72
2023/06/29 07:07:06;;;;;;;38.50;23.20;;;;;;;;;;5072877;28;20051;-73
2023/06/29 07:09:32;;;;;;;37.75;21.98;;;;;;;;;;5077286;28;20135;-72
2023/06/29 07:11:58;;;;;;;38.80;22.63;;;;;;;;;;5068737;28;20507;-73
2023/06/29 07:14:24;;;;;;;39.42;23.13;;;;;;;;;;5068457;28;20413;-68
2023/06/29 07:16:50;;;;;;;35.65;22.60;;;;;;;;;;5087473;28;20040;-70
2023/06/29 07:19:17;;;;;;;40.75;22.20;;;;;;;;;;5088118;28;20052;-71
2023/06/29 07:21:43;;;;;;;36.95;21.42;;;;;;;;;;5089714;28;20036;-70
2023/06/29 07:24:09;;;;;;;47.25;22.95;;;;;;;;;;5087735;28;20157;-70
2023/06/29 07:26:36;;;;;;;41.35;22.15;;;;;;;;;;5089269;28;20043;-81
2023/06/29 07:29:04;;;;;;;38.65;23.42;;;;;;;;;;5078335;28;20048;-82
2023/06/29 07:31:30;;;;;;;40.55;23.10;;;;;;;;;;5040944;28;20060;-82
2023/06/29 07:33:56;;;;;;;39.53;23.55;;;;;;;;;;5068748;28;20043;-79
2023/06/29 07:36:23;;;;;;;39.65;23.33;;;;;;;;;;5047010;28;20037;-77
2023/06/29 07:38:49;;;;;;;35.65;22.52;;;;;;;;;;5070690;28;20117;-88
2023/06/29 07:41:17;;;;;;;39.75;22.95;;;;;;;;;;5031744;28;20052;-74
2023/06/29 07:43:47;;;;;;;37.25;23.27;;;;;;;;;;5093435;28;20063;-76
2023/06/29 07:46:13;;;;;;;41.88;23.17;;;;;;;;;;5091710;28;20500;-76
2023/06/29 07:48:39;;;;;;;39.10;22.88;;;;;;;;;;5093029;28;20048;-75
2023/06/29 07:51:06;;;;;;;36.97;21.88;;;;;;;;;;5092340;28;20187;-74
2023/06/29 07:53:32;;;;;;;36.33;23.40;;;;;;;;;;5071511;28;20131;-77
2023/06/29 07:55:59;;;;;;;42.63;23.80;;;;;;;;;;5074928;28;20071;-73
2023/06/29 07:58:25;;;;;;;43.70;24.48;;;;;;;;;;5072059;28;20048;-71
2023/06/29 08:00:51;;;;;;;40.17;23.65;;;;;;;;;;5086335;28;20388;-72
2023/06/29 08:03:17;;;;;;;40.67;24.38;;;;;;;;;;5090315;28;20648;-77
2023/06/29 08:05:43;;;;;;;46.60;24.48;;;;;;;;;;5059133;28;20082;-76
2023/06/29 08:08:10;;;;;;;39.35;23.55;;;;;;;;;;5090859;28;20048;-77
2023/06/29 08:10:36;;;;;;;38.13;23.45;;;;;;;;;;5076024;28;20059;-75
2023/06/29 08:13:02;;;;;;;40.78;24.20;;;;;;;;;;5076260;28;20044;-76
2023/06/29 08:15:28;;;;;;;41.70;23.55;;;;;;;;;;5089265;28;20044;-78
2023/06/29 08:17:54;;;;;;;40.25;24.73;;;;;;;;;;5067508;28;20044;-77
2023/06/29 08:20:22;;;;;;;41.50;23.83;;;;;;;;;;5071364;28;20036;-73
2023/06/29 08:22:48;;;;;;;34.53;21.98;;;;;;;;;;5086837;28;20493;-73
2023/06/29 08:25:15;;;;;;;40.63;23.63;;;;;;;;;;5091603;28;20040;-73
2023/06/29 08:27:44;;;;;;;39.58;24.35;;;;;;;;;;5091126;28;20097;-73
2023/06/29 08:30:10;;;;;;;38.65;23.27;;;;;;;;;;5091585;28;20510;-74
2023/06/29 08:32:36;;;;;;;39.03;23.65;;;;;;;;;;5087281;28;20052;-74
2023/06/29 08:35:02;;;;;;;36.60;22.95;;;;;;;;;;5072720;28;20555;-75
2023/06/29 08:37:28;;;;;;;36.75;23.13;;;;;;;;;;5080406;28;20048;-73
2023/06/29 08:39:57;;;;;;;37.22;22.70;;;;;;;;;;5088665;28;20062;-74
2023/06/29 08:42:24;;;;;;;41.38;23.02;;;;;;;;;;5074936;28;20604;-74
2023/06/29 08:44:50;;;;;;;37.35;20.92;;;;;;;;;;5070663;28;20131;-75
2023/06/29 08:47:17;;;;;;;38.47;22.60;;;;;;;;;;5070520;28;20059;-74
2023/06/29 08:49:43;;;;;;;33.95;21.75;;;;;;;;;;5069777;28;20048;-74
2023/06/29 08:52:14;;;;;;;37.55;20.88;;;;;;;;;;5070395;28;20386;-75
2023/06/29 08:54:41;;;;;;;36.97;20.63;;;;;;;;;;5070399;28;20040;-79
2023/06/29 08:57:07;;;;;;;37.65;22.50;;;;;;;;;;5070600;28;20084;-79
2023/06/29 08:59:33;;;;;;;37.55;23.10;;;;;;;;;;5060244;28;20041;-79
2023/06/29 09:02:00;;;;;;;35.53;21.20;;;;;;;;;;5037933;28;20048;-79
2023/06/29 09:04:26;;;;;;;39.83;21.52;;;;;;;;;;5069315;28;20049;-78
2023/06/29 09:07:03;;;;;;;39.60;22.13;;;;;;;;;;5037463;28;20048;-77
2023/06/29 09:09:30;;;;;;;36.38;21.17;;;;;;;;;;5052961;28;20087;-77
2023/06/29 09:11:56;;;;;;;38.35;22.42;;;;;;;;;;5054733;28;20041;-78
2023/06/29 09:14:23;;;;;;;37.80;22.33;;;;;;;;;;5070213;28;20045;-77
2023/06/29 09:16:50;;;;;;;38.55;21.38;;;;;;;;;;5071250;28;20044;-81
2023/06/29 09:19:17;;;;;;;37.47;21.27;;;;;;;;;;5052726;28;20417;-76
2023/06/29 09:21:48;;;;;;;37.95;21.50;;;;;;;;;;5054551;28;20086;-79
2023/06/29 09:24:16;;;;;;;37.30;22.33;;;;;;;;;;5067900;28;20051;-79
2023/06/29 09:26:42;;;;;;;37.58;21.88;;;;;;;;;;5069451;28;20484;-79
2023/06/29 09:29:08;;;;;;;37.28;22.70;;;;;;;;;;5070215;28;20139;-79
2023/06/29 09:31:37;;;;;;;38.92;20.65;;;;;;;;;;5053777;28;20047;-79
2023/06/29 09:34:29;;;;;;;31.70;19.92;;;;;;;;;;5069672;28;20523;-79
2023/06/29 09:36:56;;;;;;;39.78;21.58;;;;;;;;;;5066989;28;20538;-79
2023/06/29 09:39:22;;;;;;;36.90;21.15;;;;;;;;;;5069520;28;20044;-79
2023/06/29 09:41:49;;;;;;;33.53;20.83;;;;;;;;;;5069108;28;20401;-80
2023/06/29 09:44:19;;;;;;;34.65;20.13;;;;;;;;;;5069646;28;20051;-79
2023/06/29 09:46:52;;;;;;;33.35;20.00;;;;;;;;;;5050726;28;20049;-79
2023/06/29 09:49:19;;;;;;;33.42;20.05;;;;;;;;;;5032437;28;20049;-79
2023/06/29 09:51:45;;;;;;;32.50;20.45;;;;;;;;;;5034166;28;20048;-79
2023/06/29 09:54:13;;;;;;;38.17;20.20;;;;;;;;;;5049827;28;20439;-79
2023/06/29 09:56:40;;;;;;;33.50;19.77;;;;;;;;;;5050638;28;20084;-79
2023/06/29 09:59:11;;;;;;;33.65;20.30;;;;;;;;;;5049801;28;20477;-80
2023/06/29 10:01:38;;;;;;;31.13;18.50;;;;;;;;;;5050241;28;20070;-80
2023/06/29 10:04:04;;;;;;;29.50;19.27;;;;;;;;;;5056054;28;20394;-80
2023/06/29 10:06:44;;;;;;;33.60;19.55;;;;;;;;;;5049869;28;20048;-80
2023/06/29 10:09:12;;;;;;;29.75;17.17;;;;;;;;;;5049257;28;20525;-80
2023/06/29 10:11:39;;;;;;;27.80;18.05;;;;;;;;;;5051873;28;20049;-80
2023/06/29 10:14:06;;;;;;;33.90;19.50;;;;;;;;;;5036264;28;20057;-80
2023/06/29 10:16:34;;;;;;;34.05;18.58;;;;;;;;;;5069097;28;20127;-80
2023/06/29 10:19:06;;;;;;;31.73;19.25;;;;;;;;;;5051954;28;20055;-80
2023/06/29 10:21:32;;;;;;;34.13;19.42;;;;;;;;;;5068587;28;20053;-80
2023/06/29 10:23:58;;;;;;;36.67;20.17;;;;;;;;;;5086181;28;20052;-80
2023/06/29 10:26:24;;;;;;;38.45;21.13;;;;;;;;;;5073135;28;20058;-80
2023/06/29 10:28:50;;;;;;;37.10;20.80;;;;;;;;;;5079939;28;20070;-80
2023/06/29 10:31:30;;;;;;;36.55;21.48;;;;;;;;;;5069331;28;20485;-80
2023/06/29 10:33:58;;;;;;;33.38;20.23;;;;;;;;;;5051814;28;20048;-81
2023/06/29 10:36:25;;;;;;;34.40;20.27;;;;;;;;;;5065313;28;20072;-80
2023/06/29 10:38:51;;;;;;;35.85;20.58;;;;;;;;;;5068127;28;20139;-79
2023/06/29 10:41:27;;;;;;;35.83;20.40;;;;;;;;;;5068458;28;20481;-79
2023/06/29 10:44:00;;;;;;;37.20;21.48;;;;;;;;;;5068277;28;20079;-80
2023/06/29 10:46:42;;;;;;;38.95;20.88;;;;;;;;;;5064609;28;20041;-80
2023/06/29 10:49:20;;;;;;;37.58;22.15;;;;;;;;;;5052527;28;20040;-80
2023/06/29 10:51:50;;;;;;;38.88;22.50;;;;;;;;;;5054254;28;20041;-80
2023/06/29 10:54:16;;;;;;;40.63;22.80;;;;;;;;;;5057004;28;20037;-79
2023/06/29 10:56:55;;;;;;;36.78;22.25;;;;;;;;;;5063183;28;20358;-79
2023/06/29 10:59:22;;;;;;;39.10;22.00;;;;;;;;;;5066051;28;20170;-80
2023/06/29 11:01:48;;;;;;;35.05;21.42;;;;;;;;;;5056060;28;20122;-80
2023/06/29 11:04:14;;;;;;;36.75;21.23;;;;;;;;;;5088017;28;20052;-80
2023/06/29 11:06:41;;;;;;;38.47;22.10;;;;;;;;;;5092338;28;20145;-78
2023/06/29 11:09:13;;;;;;;39.25;22.13;;;;;;;;;;5075355;28;20052;-79
2023/06/29 11:11:40;;;;;;;49.75;23.05;;;;;;;;;;5074677;28;20044;-79
2023/06/29 11:14:06;;;;;;;41.92;23.38;;;;;;;;;;5063713;28;20047;-78
2023/06/29 11:16:33;;;;;;;43.88;22.88;;;;;;;;;;5072485;28;20044;-79
2023/06/29 11:19:02;;;;;;;41.90;23.00;;;;;;;;;;5068346;28;20119;-80
2023/06/29 11:21:28;;;;;;;36.85;21.45;;;;;;;;;;5092529;28;20040;-79
2023/06/29 11:23:55;;;;;;;41.80;23.27;;;;;;;;;;5092616;28;20040;-80
2023/06/29 11:26:21;;;;;;;37.58;22.90;;;;;;;;;;5093048;28;20044;-79
2023/06/29 11:28:49;;;;;;;42.13;24.77;;;;;;;;;;5068740;28;20044;-79
2023/06/29 11:31:18;;;;;;;39.30;23.05;;;;;;;;;;5068349;28;20591;-79
2023/06/29 11:33:47;;;;;;;40.40;23.98;;;;;;;;;;5054727;28;20367;-80
2023/06/29 11:36:14;;;;;;;36.67;23.75;;;;;;;;;;5072346;28;20135;-79
2023/06/29 11:38:40;;;;;;;37.80;22.35;;;;;;;;;;5054332;28;20041;-77
2023/06/29 11:41:06;;;;;;;34.13;21.50;;;;;;;;;;5071860;28;20635;-76
2023/06/29 11:43:32;;;;;;;36.50;21.42;;;;;;;;;;5070649;28;20048;-77
2023/06/29 11:45:59;;;;;;;33.80;21.08;;;;;;;;;;5073842;28;20123;-77
2023/06/29 11:48:25;;;;;;;31.67;19.02;;;;;;;;;;5084528;28;20052;-77
2023/06/29 11:50:51;;;;;;;33.75;19.95;;;;;;;;;;5055272;28;20087;-77
2023/06/29 11:53:18;;;;;;;31.05;19.15;;;;;;;;;;5088867;28;20062;-77
2023/06/29 11:55:50;;;;;;;31.88;18.95;;;;;;;;;;5091534;28;20044;-78
2023/06/29 11:58:16;;;;;;;31.50;19.20;;;;;;;;;;5079120;28;20511;-75
2023/06/29 12:00:42;;;;;;;32.17;18.52;;;;;;;;;;5074135;28;20545;-75
2023/06/29 12:03:10;;;;;;;28.02;17.90;;;;;;;;;;5067602;28;20051;-76
2023/06/29 12:05:40;;;;;;;27.83;17.40;;;;;;;;;;5080148;28;20178;-76
2023/06/29 12:08:08;;;;;;;29.85;18.00;;;;;;;;;;5091340;28;20051;-76
2023/06/29 12:10:36;;;;;;;34.85;19.25;;;;;;;;;;5065177;28;20056;-77
2023/06/29 12:13:02;;;;;;;29.67;18.58;;;;;;;;;;5072508;28;20051;-76
2023/06/29 12:15:31;;;;;;;29.83;18.80;;;;;;;;;;5082431;28;20047;-76
2023/06/29 12:18:07;;;;;;;29.85;17.67;;;;;;;;;;5082460;28;20146;-76
2023/06/29 12:20:53;;;;;;;28.90;18.35;;;;;;;;;;5072803;28;20400;-77
2023/06/29 12:23:19;;;;;;;30.02;17.55;;;;;;;;;;5075142;28;20052;-76
2023/06/29 12:25:52;;;;;;;28.30;17.35;;;;;;;;;;5075013;28;20507;-76
2023/06/29 12:28:18;;;;;;;28.17;17.13;;;;;;;;;;5059060;28;20143;-76
2023/06/29 12:30:44;;;;;;;27.58;16.35;;;;;;;;;;5075196;28;20052;-76
2023/06/29 12:33:13;;;;;;;23.17;15.35;;;;;;;;;;5074722;28;20048;-76
2023/06/29 12:35:39;;;;;;;24.48;15.52;;;;;;;;;;5063324;28;20388;-76
2023/06/29 12:38:05;;;;;;;29.08;15.60;;;;;;;;;;5061130;28;20101;-75
2023/06/29 12:40:32;;;;;;;27.88;15.88;;;;;;;;;;5071899;28;20091;-75
2023/06/29 12:42:59;;;;;;;26.83;15.65;;;;;;;;;;5054280;28;20049;-76
2023/06/29 12:45:25;;;;;;;26.52;15.40;;;;;;;;;;5071945;28;20047;-75
2023/06/29 12:47:51;;;;;;;28.23;16.55;;;;;;;;;;5070178;28;20475;-75
2023/06/29 12:50:17;;;;;;;27.13;16.67;;;;;;;;;;5071831;28;20051;-75
2023/06/29 12:52:48;;;;;;;26.20;16.30;;;;;;;;;;5065009;28;20486;-76
2023/06/29 12:55:14;;;;;;;28.80;17.67;;;;;;;;;;5054419;28;20048;-75
2023/06/29 12:57:41;;;;;;;28.13;17.33;;;;;;;;;;5068475;28;20036;-75
2023/06/29 13:00:08;;;;;;;28.23;17.33;;;;;;;;;;5051506;28;20044;-76
2023/06/29 13:02:34;;;;;;;29.00;16.92;;;;;;;;;;5051045;28;20056;-77
2023/06/29 13:05:01;;;;;;;30.38;18.15;;;;;;;;;;5051095;28;20045;-76
2023/06/29 13:07:27;;;;;;;28.60;18.25;;;;;;;;;;5051375;28;20053;-75
2023/06/29 13:09:53;;;;;;;30.35;18.77;;;;;;;;;;5063926;28;20056;-76
2023/06/29 13:12:22;;;;;;;29.38;18.20;;;;;;;;;;5054561;28;20059;-76
2023/06/29 13:14:49;;;;;;;33.20;19.67;;;;;;;;;;5053985;28;20048;-76
2023/06/29 13:17:15;;;;;;;34.80;19.88;;;;;;;;;;5071290;28;20090;-76
2023/06/29 13:19:45;;;;;;;30.67;18.95;;;;;;;;;;5052943;28;20131;-75
2023/06/29 13:22:11;;;;;;;37.20;19.65;;;;;;;;;;5066728;28;20512;-76
2023/06/29 13:24:37;;;;;;;30.63;18.60;;;;;;;;;;5070328;28;20055;-77
2023/06/29 13:27:04;;;;;;;28.80;18.23;;;;;;;;;;5071191;28;20045;-76
2023/06/29 13:29:31;;;;;;;32.08;18.05;;;;;;;;;;5053666;28;20054;-76
2023/06/29 13:31:57;;;;;;;28.50;15.75;;;;;;;;;;5053968;28;20563;-76
2023/06/29 13:34:23;;;;;;;25.65;16.15;;;;;;;;;;5058603;28;20044;-76
2023/06/29 13:36:49;;;;;;;24.13;13.55;;;;;;;;;;5050211;28;20049;-75
2023/06/29 13:39:15;;;;;;;24.20;15.00;;;;;;;;;;5049961;28;20064;-75
2023/06/29 13:41:44;;;;;;;24.92;15.60;;;;;;;;;;5065914;28;20055;-77
2023/06/29 13:44:11;;;;;;;28.52;16.02;;;;;;;;;;5057119;28;20089;-76
2023/06/29 13:46:38;;;;;;;27.70;16.13;;;;;;;;;;5090022;28;20477;-76
2023/06/29 13:49:04;;;;;;;27.98;16.25;;;;;;;;;;5070589;28;20043;-76
2023/06/29 13:51:31;;;;;;;25.73;16.17;;;;;;;;;;5073315;28;20051;-76
2023/06/29 13:53:57;;;;;;;24.15;15.23;;;;;;;;;;5072055;28;20044;-76
2023/06/29 13:56:24;;;;;;;22.25;14.52;;;;;;;;;;5057112;28;20055;-76
2023/06/29 13:58:53;;;;;;;26.38;16.10;;;;;;;;;;5076258;28;20052;-76
2023/06/29 14:01:20;;;;;;;26.75;16.00;;;;;;;;;;5087027;28;20077;-76
2023/06/29 14:03:47;;;;;;;24.80;15.98;;;;;;;;;;5088837;28;20133;-76
2023/06/29 14:06:13;;;;;;;30.45;16.95;;;;;;;;;;5064060;28;20060;-75
2023/06/29 14:08:40;;;;;;;28.85;17.33;;;;;;;;;;5069053;28;20716;-78
2023/06/29 14:11:06;;;;;;;28.88;17.45;;;;;;;;;;5069951;28;20082;-76
2023/06/29 14:13:32;;;;;;;26.30;17.27;;;;;;;;;;5069892;28;20048;-76
2023/06/29 14:15:59;;;;;;;28.45;18.42;;;;;;;;;;5069678;28;20394;-76
2023/06/29 14:18:25;;;;;;;32.60;19.55;;;;;;;;;;5068475;28;20071;-76
2023/06/29 14:20:52;;;;;;;33.45;18.88;;;;;;;;;;5069011;28;20056;-77
2023/06/29 14:23:18;;;;;;;33.97;19.45;;;;;;;;;;5068772;28;20044;-78
2023/06/29 14:25:45;;;;;;;32.55;19.42;;;;;;;;;;5043612;28;20485;-77
2023/06/29 14:28:11;;;;;;;53.85;23.50;;;;;;;;;;5049669;28;20059;-76
2023/06/29 14:30:37;;;;;;;49.70;24.25;;;;;;;;;;5063603;28;20419;-76